sensor_id;sensor_type;location;lat;lon;timestamp;pressure;altitude;pressure_sealevel;temperature;humidity
2188;BME280;1100;52.014;8.540;2023-05-07T00:00:08;100301.56;;;11.63;74.02
2188;BME280;1100;52.014;8.540;2023-05-07T00:02:34;100300.00;;;11.62;74.02
2188;BME280;1100;52.014;8.540;2023-05-07T00:04:59;100306.03;;;11.61;74.23
2188;BME280;1100;52.014;8.540;2023-05-07T00:07:24;100294.97;;;11.57;74.17
2188;BME280;1100;52.014;8.540;2023-05-07T00:09:50;100293.88;;;11.54;74.07
2188;BME280;1100;52.014;8.540;2023-05-07T00:12:15;100301.88;;;11.52;74.19
2188;BME280;1100;52.014;8.540;2023-05-07T00:14:40;100301.53;;;11.50;74.27
2188;BME280;1100;52.014;8.540;2023-05-07T00:17:06;100303.97;;;11.48;74.47
2188;BME280;1100;52.014;8.540;2023-05-07T00:19:31;100314.31;;;11.48;74.29
2188;BME280;1100;52.014;8.540;2023-05-07T00:21:56;100320.34;;;11.46;74.41
2188;BME280;1100;52.014;8.540;2023-05-07T00:24:23;100312.84;;;11.43;74.32
2188;BME280;1100;52.014;8.540;2023-05-07T00:26:49;100316.53;;;11.40;74.43
2188;BME280;1100;52.014;8.540;2023-05-07T00:29:15;100314.97;;;11.39;74.24
2188;BME280;1100;52.014;8.540;2023-05-07T00:31:40;100318.50;;;11.39;74.52
2188;BME280;1100;52.014;8.540;2023-05-07T00:34:05;100316.97;;;11.38;74.34
2188;BME280;1100;52.014;8.540;2023-05-07T00:36:31;100323.41;;;11.35;74.72
2188;BME280;1100;52.014;8.540;2023-05-07T00:38:59;100327.84;;;11.32;74.54
2188;BME280;1100;52.014;8.540;2023-05-07T00:41:25;100323.94;;;11.30;74.44
2188;BME280;1100;52.014;8.540;2023-05-07T00:43:51;100317.25;;;11.27;74.54
2188;BME280;1100;52.014;8.540;2023-05-07T00:46:17;100318.47;;;11.26;74.60
2188;BME280;1100;52.014;8.540;2023-05-07T00:48:44;100314.56;;;11.24;74.57
2188;BME280;1100;52.014;8.540;2023-05-07T00:51:10;100311.44;;;11.21;74.55
2188;BME280;1100;52.014;8.540;2023-05-07T00:53:36;100311.44;;;11.21;74.66
2188;BME280;1100;52.014;8.540;2023-05-07T00:56:02;100315.53;;;11.17;74.58
2188;BME280;1100;52.014;8.540;2023-05-07T00:58:27;100323.09;;;11.16;74.80
2188;BME280;1100;52.014;8.540;2023-05-07T01:00:53;100317.97;;;11.15;74.66
2188;BME280;1100;52.014;8.540;2023-05-07T01:03:18;100311.72;;;11.11;74.57
2188;BME280;1100;52.014;8.540;2023-05-07T01:05:44;100311.81;;;11.07;74.71
2188;BME280;1100;52.014;8.540;2023-05-07T01:08:12;100316.69;;;11.03;74.69
2188;BME280;1100;52.014;8.540;2023-05-07T01:10:38;100318.34;;;11.00;74.74
2188;BME280;1100;52.014;8.540;2023-05-07T01:13:10;100324.78;;;10.97;74.64
2188;BME280;1100;52.014;8.540;2023-05-07T01:15:37;100327.22;;;10.95;74.73
2188;BME280;1100;52.014;8.540;2023-05-07T01:18:02;100320.88;;;10.94;74.74
2188;BME280;1100;52.014;8.540;2023-05-07T01:20:28;100326.78;;;10.96;74.85
2188;BME280;1100;52.014;8.540;2023-05-07T01:22:54;100321.66;;;10.95;74.77
2188;BME280;1100;52.014;8.540;2023-05-07T01:25:20;100316.09;;;10.95;74.74
2188;BME280;1100;52.014;8.540;2023-05-07T01:27:45;100322.44;;;10.95;74.79
2188;BME280;1100;52.014;8.540;2023-05-07T01:30:11;100322.09;;;10.93;74.68
2188;BME280;1100;52.014;8.540;2023-05-07T01:35:12;100332.19;;;10.87;74.73
2188;BME280;1100;52.014;8.540;2023-05-07T01:37:39;100321.50;;;10.86;74.86
2188;BME280;1100;52.014;8.540;2023-05-07T01:40:06;100321.06;;;10.87;74.82
2188;BME280;1100;52.014;8.540;2023-05-07T01:42:32;100319.16;;;10.84;74.62
2188;BME280;1100;52.014;8.540;2023-05-07T01:44:58;100316.47;;;10.80;74.85
2188;BME280;1100;52.014;8.540;2023-05-07T01:47:24;100324.00;;;10.80;74.90
2188;BME280;1100;52.014;8.540;2023-05-07T01:49:50;100320.47;;;10.79;74.99
2188;BME280;1100;52.014;8.540;2023-05-07T01:52:15;100322.81;;;10.81;74.86
2188;BME280;1100;52.014;8.540;2023-05-07T01:54:40;100317.69;;;10.79;75.16
2188;BME280;1100;52.014;8.540;2023-05-07T01:57:06;100320.09;;;10.77;75.04
2188;BME280;1100;52.014;8.540;2023-05-07T01:59:31;100319.31;;;10.77;74.96
2188;BME280;1100;52.014;8.540;2023-05-07T02:01:56;100315.78;;;10.76;75.22
2188;BME280;1100;52.014;8.540;2023-05-07T02:04:22;100325.66;;;10.77;75.16
2188;BME280;1100;52.014;8.540;2023-05-07T02:06:47;100319.00;;;10.75;75.17
2188;BME280;1100;52.014;8.540;2023-05-07T02:09:13;100317.84;;;10.72;75.03
2188;BME280;1100;52.014;8.540;2023-05-07T02:11:39;100319.50;;;10.69;75.15
2188;BME280;1100;52.014;8.540;2023-05-07T02:14:04;100323.50;;;10.68;75.05
2188;BME280;1100;52.014;8.540;2023-05-07T02:16:30;100323.94;;;10.67;75.28
2188;BME280;1100;52.014;8.540;2023-05-07T02:18:55;100318.38;;;10.67;75.15
2188;BME280;1100;52.014;8.540;2023-05-07T02:21:21;100325.94;;;10.66;75.22
2188;BME280;1100;52.014;8.540;2023-05-07T02:27:08;100326.38;;;10.65;75.32
2188;BME280;1100;52.014;8.540;2023-05-07T02:29:34;100333.56;;;10.62;75.40
2188;BME280;1100;52.014;8.540;2023-05-07T02:31:59;100332.44;;;10.59;75.41
2188;BME280;1100;52.014;8.540;2023-05-07T02:34:24;100331.22;;;10.61;75.50
2188;BME280;1100;52.014;8.540;2023-05-07T02:36:50;100331.22;;;10.61;75.41
2188;BME280;1100;52.014;8.540;2023-05-07T02:39:16;100326.88;;;10.59;75.27
2188;BME280;1100;52.014;8.540;2023-05-07T02:41:42;100327.38;;;10.54;75.19
2188;BME280;1100;52.014;8.540;2023-05-07T02:44:07;100318.72;;;10.52;75.46
2188;BME280;1100;52.014;8.540;2023-05-07T02:46:32;100319.91;;;10.51;75.54
2188;BME280;1100;52.014;8.540;2023-05-07T02:48:58;100322.69;;;10.51;75.35
2188;BME280;1100;52.014;8.540;2023-05-07T02:51:23;100329.13;;;10.48;75.55
2188;BME280;1100;52.014;8.540;2023-05-07T02:53:48;100333.13;;;10.47;75.50
2188;BME280;1100;52.014;8.540;2023-05-07T02:56:14;100329.94;;;10.45;75.50
2188;BME280;1100;52.014;8.540;2023-05-07T02:58:40;100327.59;;;10.43;75.53
2188;BME280;1100;52.014;8.540;2023-05-07T03:01:06;100326.84;;;10.43;75.55
2188;BME280;1100;52.014;8.540;2023-05-07T03:03:31;100331.25;;;10.40;75.50
2188;BME280;1100;52.014;8.540;2023-05-07T03:05:57;100327.34;;;10.38;75.51
2188;BME280;1100;52.014;8.540;2023-05-07T03:08:22;100325.78;;;10.37;75.98
2188;BME280;1100;52.014;8.540;2023-05-07T03:10:48;100323.78;;;10.37;75.62
2188;BME280;1100;52.014;8.540;2023-05-07T03:13:13;100332.53;;;10.35;75.76
2188;BME280;1100;52.014;8.540;2023-05-07T03:15:39;100318.31;;;10.33;75.67
2188;BME280;1100;52.014;8.540;2023-05-07T03:18:04;100324.75;;;10.30;75.85
2188;BME280;1100;52.014;8.540;2023-05-07T03:20:30;100321.59;;;10.28;75.69
2188;BME280;1100;52.014;8.540;2023-05-07T03:22:55;100318.13;;;10.24;75.84
2188;BME280;1100;52.014;8.540;2023-05-07T03:25:21;100317.78;;;10.22;75.76
2188;BME280;1100;52.014;8.540;2023-05-07T03:27:46;100314.63;;;10.20;75.95
2188;BME280;1100;52.014;8.540;2023-05-07T03:30:11;100322.19;;;10.19;75.70
2188;BME280;1100;52.014;8.540;2023-05-07T03:32:37;100306.72;;;10.18;75.97
2188;BME280;1100;52.014;8.540;2023-05-07T03:35:02;100315.84;;;10.19;75.94
2188;BME280;1100;52.014;8.540;2023-05-07T03:37:28;100317.94;;;10.15;75.91
2188;BME280;1100;52.014;8.540;2023-05-07T03:39:53;100319.13;;;10.14;75.86
2188;BME280;1100;52.014;8.540;2023-05-07T03:42:19;100321.91;;;10.14;75.99
2188;BME280;1100;52.014;8.540;2023-05-07T03:44:44;100317.94;;;10.15;75.95
2188;BME280;1100;52.014;8.540;2023-05-07T03:47:09;100312.38;;;10.15;76.05
2188;BME280;1100;52.014;8.540;2023-05-07T03:49:35;100314.38;;;10.14;76.13
2188;BME280;1100;52.014;8.540;2023-05-07T03:52:00;100327.91;;;10.12;75.99
2188;BME280;1100;52.014;8.540;2023-05-07T03:54:26;100327.47;;;10.14;76.17
2188;BME280;1100;52.014;8.540;2023-05-07T03:56:51;100336.16;;;10.16;76.20
2188;BME280;1100;52.014;8.540;2023-05-07T03:59:17;100338.50;;;10.17;76.20
2188;BME280;1100;52.014;8.540;2023-05-07T04:01:42;100340.06;;;10.18;76.34
2188;BME280;1100;52.014;8.540;2023-05-07T04:04:07;100336.84;;;10.20;76.50
2188;BME280;1100;52.014;8.540;2023-05-07T04:06:32;100336.84;;;10.20;76.26
2188;BME280;1100;52.014;8.540;2023-05-07T04:08:58;100333.75;;;10.18;76.18
2188;BME280;1100;52.014;8.540;2023-05-07T04:11:23;100340.16;;;10.15;76.06
2188;BME280;1100;52.014;8.540;2023-05-07T04:13:50;100340.16;;;10.15;76.27
2188;BME280;1100;52.014;8.540;2023-05-07T04:16:15;100341.28;;;10.17;76.30
2188;BME280;1100;52.014;8.540;2023-05-07T04:18:41;100345.72;;;10.15;76.37
2188;BME280;1100;52.014;8.540;2023-05-07T04:21:14;100350.91;;;10.13;76.37
2188;BME280;1100;52.014;8.540;2023-05-07T04:23:39;100355.69;;;10.12;76.23
2188;BME280;1100;52.014;8.540;2023-05-07T04:26:04;100358.81;;;10.14;76.56
2188;BME280;1100;52.014;8.540;2023-05-07T04:28:30;100360.03;;;10.13;76.70
2188;BME280;1100;52.014;8.540;2023-05-07T04:30:55;100357.59;;;10.15;76.52
2188;BME280;1100;52.014;8.540;2023-05-07T04:33:20;100362.38;;;10.15;76.36
2188;BME280;1100;52.014;8.540;2023-05-07T04:35:46;100362.38;;;10.15;76.36
2188;BME280;1100;52.014;8.540;2023-05-07T04:38:11;100362.03;;;10.13;76.52
2188;BME280;1100;52.014;8.540;2023-05-07T04:40:36;100367.94;;;10.15;76.58
2188;BME280;1100;52.014;8.540;2023-05-07T04:43:02;100360.38;;;10.15;76.78
2188;BME280;1100;52.014;8.540;2023-05-07T04:45:27;100358.38;;;10.16;76.72
2188;BME280;1100;52.014;8.540;2023-05-07T04:47:52;100371.06;;;10.17;76.67
2188;BME280;1100;52.014;8.540;2023-05-07T04:50:18;100367.50;;;10.16;76.67
2188;BME280;1100;52.014;8.540;2023-05-07T04:52:45;100363.09;;;10.19;76.68
2188;BME280;1100;52.014;8.540;2023-05-07T04:55:10;100360.72;;;10.17;76.68
2188;BME280;1100;52.014;8.540;2023-05-07T04:57:35;100367.09;;;10.18;76.57
2188;BME280;1100;52.014;8.540;2023-05-07T05:00:01;100369.88;;;10.18;76.69
2188;BME280;1100;52.014;8.540;2023-05-07T05:02:28;100369.50;;;10.16;76.62
2188;BME280;1100;52.014;8.540;2023-05-07T05:04:53;100373.34;;;10.22;76.57
2188;BME280;1100;52.014;8.540;2023-05-07T05:07:18;100376.47;;;10.24;76.73
2188;BME280;1100;52.014;8.540;2023-05-07T05:09:43;100376.47;;;10.24;76.60
2188;BME280;1100;52.014;8.540;2023-05-07T05:12:09;100368.47;;;10.26;76.75
2188;BME280;1100;52.014;8.540;2023-05-07T05:14:35;100364.50;;;10.27;76.56
2188;BME280;1100;52.014;8.540;2023-05-07T05:17:00;100369.19;;;10.30;76.64
2188;BME280;1100;52.014;8.540;2023-05-07T05:19:25;100370.25;;;10.37;76.94
2188;BME280;1100;52.014;8.540;2023-05-07T05:21:51;100365.81;;;10.39;76.76
2188;BME280;1100;52.014;8.540;2023-05-07T05:24:16;100379.97;;;10.45;76.80
2188;BME280;1100;52.014;8.540;2023-05-07T05:26:41;100372.81;;;10.48;76.90
2188;BME280;1100;52.014;8.540;2023-05-07T05:29:07;100374.31;;;10.52;76.76
2188;BME280;1100;52.014;8.540;2023-05-07T05:31:32;100371.34;;;10.59;76.69
2188;BME280;1100;52.014;8.540;2023-05-07T05:33:58;100377.59;;;10.64;76.78
2188;BME280;1100;52.014;8.540;2023-05-07T05:36:24;100377.97;;;10.66;76.90
2188;BME280;1100;52.014;8.540;2023-05-07T05:38:49;100380.22;;;10.71;76.86
2188;BME280;1100;52.014;8.540;2023-05-07T05:41:14;100380.91;;;10.75;76.85
2188;BME280;1100;52.014;8.540;2023-05-07T05:43:40;100385.19;;;10.80;76.75
2188;BME280;1100;52.014;8.540;2023-05-07T05:46:05;100380.78;;;10.82;76.73
2188;BME280;1100;52.014;8.540;2023-05-07T05:48:31;100388.56;;;10.88;76.91
2188;BME280;1100;52.014;8.540;2023-05-07T05:50:56;100383.63;;;10.95;76.89
2188;BME280;1100;52.014;8.540;2023-05-07T05:53:21;100387.88;;;11.00;77.04
2188;BME280;1100;52.014;8.540;2023-05-07T05:55:47;100393.28;;;11.07;77.26
2188;BME280;1100;52.014;8.540;2023-05-07T05:58:12;100391.97;;;11.12;77.07
2188;BME280;1100;52.014;8.540;2023-05-07T06:00:37;100396.22;;;11.17;77.10
2188;BME280;1100;52.014;8.540;2023-05-07T06:03:03;100398.47;;;11.22;77.12
2188;BME280;1100;52.014;8.540;2023-05-07T06:05:28;100394.72;;;11.29;77.25
2188;BME280;1100;52.014;8.540;2023-05-07T06:07:53;100390.19;;;11.35;77.35
2188;BME280;1100;52.014;8.540;2023-05-07T06:10:19;100392.09;;;11.38;77.15
2188;BME280;1100;52.014;8.540;2023-05-07T06:12:44;100392.78;;;11.42;77.10
2188;BME280;1100;52.014;8.540;2023-05-07T06:15:10;100394.59;;;11.49;77.15
2188;BME280;1100;52.014;8.540;2023-05-07T06:17:35;100389.03;;;11.49;77.06
2188;BME280;1100;52.014;8.540;2023-05-07T06:20:00;100396.94;;;11.51;77.18
2188;BME280;1100;52.014;8.540;2023-05-07T06:22:26;100403.75;;;11.50;76.96
2188;BME280;1100;52.014;8.540;2023-05-07T06:24:51;100407.28;;;11.50;77.16
2188;BME280;1100;52.014;8.540;2023-05-07T06:27:16;100404.44;;;11.54;77.20
2188;BME280;1100;52.014;8.540;2023-05-07T06:29:42;100395.19;;;11.57;77.06
2188;BME280;1100;52.014;8.540;2023-05-07T06:32:08;100412.13;;;11.63;77.10
2188;BME280;1100;52.014;8.540;2023-05-07T06:34:34;100406.94;;;11.65;77.17
2188;BME280;1100;52.014;8.540;2023-05-07T06:36:59;100413.53;;;11.71;77.09
2188;BME280;1100;52.014;8.540;2023-05-07T06:39:25;100417.34;;;11.77;77.10
2188;BME280;1100;52.014;8.540;2023-05-07T06:41:50;100419.25;;;11.80;76.91
2188;BME280;1100;52.014;8.540;2023-05-07T06:44:15;100425.84;;;11.87;76.78
2188;BME280;1100;52.014;8.540;2023-05-07T06:46:41;100417.03;;;11.88;76.91
2188;BME280;1100;52.014;8.540;2023-05-07T06:49:06;100421.19;;;11.96;76.79
2188;BME280;1100;52.014;8.540;2023-05-07T06:51:32;100429.28;;;12.07;77.05
2188;BME280;1100;52.014;8.540;2023-05-07T06:53:57;100429.63;;;12.10;76.73
2188;BME280;1100;52.014;8.540;2023-05-07T06:56:23;100438.66;;;12.14;76.75
2188;BME280;1100;52.014;8.540;2023-05-07T06:58:48;100433.09;;;12.14;76.88
2188;BME280;1100;52.014;8.540;2023-05-07T07:01:13;100443.88;;;12.12;76.64
2188;BME280;1100;52.014;8.540;2023-05-07T07:03:39;100435.53;;;12.12;76.67
2188;BME280;1100;52.014;8.540;2023-05-07T07:06:05;100439.31;;;12.18;76.89
2188;BME280;1100;52.014;8.540;2023-05-07T07:08:30;100432.44;;;12.23;76.21
2188;BME280;1100;52.014;8.540;2023-05-07T07:10:55;100434.59;;;12.31;76.79
2188;BME280;1100;52.014;8.540;2023-05-07T07:13:21;100433.13;;;12.40;76.85
2188;BME280;1100;52.014;8.540;2023-05-07T07:15:46;100431.25;;;12.50;76.78
2188;BME280;1100;52.014;8.540;2023-05-07T07:18:11;100434.94;;;12.60;76.68
2188;BME280;1100;52.014;8.540;2023-05-07T07:20:37;100429.03;;;12.70;76.62
2188;BME280;1100;52.014;8.540;2023-05-07T07:23:02;100437.53;;;12.80;76.51
2188;BME280;1100;52.014;8.540;2023-05-07T07:25:27;100438.97;;;12.85;76.42
2188;BME280;1100;52.014;8.540;2023-05-07T07:27:53;100435.94;;;12.92;76.31
2188;BME280;1100;52.014;8.540;2023-05-07T07:30:18;100437.59;;;13.02;76.38
2188;BME280;1100;52.014;8.540;2023-05-07T07:32:43;100447.88;;;13.05;75.93
2188;BME280;1100;52.014;8.540;2023-05-07T07:35:09;100453.78;;;13.07;76.14
2188;BME280;1100;52.014;8.540;2023-05-07T07:37:34;100458.72;;;13.03;76.11
2188;BME280;1100;52.014;8.540;2023-05-07T07:40:00;100461.81;;;13.05;75.73
2188;BME280;1100;52.014;8.540;2023-05-07T07:42:26;100462.41;;;13.00;75.80
2188;BME280;1100;52.014;8.540;2023-05-07T07:44:51;100453.69;;;12.98;75.62
2188;BME280;1100;52.014;8.540;2023-05-07T07:47:17;100449.00;;;12.95;75.86
2188;BME280;1100;52.014;8.540;2023-05-07T07:49:42;100449.66;;;12.99;75.67
2188;BME280;1100;52.014;8.540;2023-05-07T07:52:07;100453.13;;;13.03;75.88
2188;BME280;1100;52.014;8.540;2023-05-07T07:54:33;100458.59;;;13.07;75.49
2188;BME280;1100;52.014;8.540;2023-05-07T07:56:58;100465.63;;;13.12;75.67
2188;BME280;1100;52.014;8.540;2023-05-07T07:59:23;100461.47;;;13.16;75.49
2188;BME280;1100;52.014;8.540;2023-05-07T08:01:49;100454.25;;;13.19;75.42
2188;BME280;1100;52.014;8.540;2023-05-07T08:04:15;100454.66;;;13.30;75.50
2188;BME280;1100;52.014;8.540;2023-05-07T08:06:40;100446.81;;;13.51;75.61
2188;BME280;1100;52.014;8.540;2023-05-07T08:09:06;100452.91;;;13.72;75.22
2188;BME280;1100;52.014;8.540;2023-05-07T08:11:31;100454.00;;;13.75;74.65
2188;BME280;1100;52.014;8.540;2023-05-07T08:13:56;100450.56;;;13.70;74.83
2188;BME280;1100;52.014;8.540;2023-05-07T08:16:22;100458.50;;;13.72;74.70
2188;BME280;1100;52.014;8.540;2023-05-07T08:18:47;100452.91;;;13.72;74.44
2188;BME280;1100;52.014;8.540;2023-05-07T08:21:13;100449.78;;;13.70;74.54
2188;BME280;1100;52.014;8.540;2023-05-07T08:23:38;100450.97;;;13.82;74.54
2188;BME280;1100;52.014;8.540;2023-05-07T08:26:03;100460.53;;;13.94;74.31
2188;BME280;1100;52.014;8.540;2023-05-07T08:28:29;100461.69;;;14.06;74.35
2188;BME280;1100;52.014;8.540;2023-05-07T08:30:54;100450.19;;;14.26;74.61
2188;BME280;1100;52.014;8.540;2023-05-07T08:33:21;100453.34;;;14.38;73.88
2188;BME280;1100;52.014;8.540;2023-05-07T08:35:46;100447.59;;;14.32;73.79
2188;BME280;1100;52.014;8.540;2023-05-07T08:38:12;100456.69;;;14.23;73.29
2188;BME280;1100;52.014;8.540;2023-05-07T08:40:38;100456.94;;;14.16;73.18
2188;BME280;1100;52.014;8.540;2023-05-07T08:43:05;100458.84;;;14.19;73.51
2188;BME280;1100;52.014;8.540;2023-05-07T08:45:33;100459.63;;;14.19;73.36
2188;BME280;1100;52.014;8.540;2023-05-07T08:48:00;100459.47;;;14.23;73.41
2188;BME280;1100;52.014;8.540;2023-05-07T08:50:26;100457.06;;;14.35;73.19
2188;BME280;1100;52.014;8.540;2023-05-07T08:52:52;100453.41;;;14.47;73.40
2188;BME280;1100;52.014;8.540;2023-05-07T08:55:18;100455.66;;;14.62;73.05
2188;BME280;1100;52.014;8.540;2023-05-07T08:57:43;100451.28;;;14.61;72.66
2188;BME280;1100;52.014;8.540;2023-05-07T09:00:09;100454.88;;;14.61;72.44
2188;BME280;1100;52.014;8.540;2023-05-07T09:02:36;100471.53;;;14.65;72.02
2188;BME280;1100;52.014;8.540;2023-05-07T09:05:02;100467.94;;;14.64;72.15
2188;BME280;1100;52.014;8.540;2023-05-07T09:07:28;100467.78;;;14.58;72.19
2188;BME280;1100;52.014;8.540;2023-05-07T09:09:53;100469.16;;;14.54;71.86
2188;BME280;1100;52.014;8.540;2023-05-07T09:12:21;100477.22;;;14.52;71.96
2188;BME280;1100;52.014;8.540;2023-05-07T09:14:47;100474.09;;;14.50;71.92
2188;BME280;1100;52.014;8.540;2023-05-07T09:17:13;100463.81;;;14.47;71.71
2188;BME280;1100;52.014;8.540;2023-05-07T09:19:38;100473.91;;;14.44;72.09
2188;BME280;1100;52.014;8.540;2023-05-07T09:22:05;100474.41;;;14.52;72.03
2188;BME280;1100;52.014;8.540;2023-05-07T09:24:32;100467.44;;;14.56;71.92
2188;BME280;1100;52.014;8.540;2023-05-07T09:27:04;100473.66;;;14.61;71.39
2188;BME280;1100;52.014;8.540;2023-05-07T09:29:30;100467.16;;;14.64;71.63
2188;BME280;1100;52.014;8.540;2023-05-07T09:32:03;100476.38;;;14.74;71.70
2188;BME280;1100;52.014;8.540;2023-05-07T09:34:29;100472.94;;;14.92;71.59
2188;BME280;1100;52.014;8.540;2023-05-07T09:36:55;100467.38;;;15.01;71.23
2188;BME280;1100;52.014;8.540;2023-05-07T09:39:22;100468.03;;;15.15;71.73
2188;BME280;1100;52.014;8.540;2023-05-07T09:41:48;100463.38;;;15.21;71.10
2188;BME280;1100;52.014;8.540;2023-05-07T09:44:14;100459.16;;;15.16;70.79
2188;BME280;1100;52.014;8.540;2023-05-07T09:46:42;100472.56;;;15.22;70.83
2188;BME280;1100;52.014;8.540;2023-05-07T09:49:12;100465.72;;;15.23;70.63
2188;BME280;1100;52.014;8.540;2023-05-07T09:51:48;100467.16;;;15.46;70.43
2188;BME280;1100;52.014;8.540;2023-05-07T09:54:14;100468.56;;;15.69;69.69
2188;BME280;1100;52.014;8.540;2023-05-07T09:56:40;100462.50;;;15.80;69.71
2188;BME280;1100;52.014;8.540;2023-05-07T09:59:10;100459.91;;;16.05;70.21
2188;BME280;1100;52.014;8.540;2023-05-07T10:01:38;100464.09;;;16.19;69.67
2188;BME280;1100;52.014;8.540;2023-05-07T10:04:05;100467.94;;;16.40;69.72
2188;BME280;1100;52.014;8.540;2023-05-07T10:06:34;100459.97;;;16.48;68.86
2188;BME280;1100;52.014;8.540;2023-05-07T10:09:00;100468.63;;;16.69;68.76
2188;BME280;1100;52.014;8.540;2023-05-07T10:11:25;100470.75;;;16.84;68.07
2188;BME280;1100;52.014;8.540;2023-05-07T10:13:52;100469.09;;;17.01;67.82
2188;BME280;1100;52.014;8.540;2023-05-07T10:16:17;100472.69;;;17.11;67.79
2188;BME280;1100;52.014;8.540;2023-05-07T10:18:43;100471.72;;;17.14;66.47
2188;BME280;1100;52.014;8.540;2023-05-07T10:21:16;100468.72;;;17.18;67.46
2188;BME280;1100;52.014;8.540;2023-05-07T10:23:44;100474.25;;;17.37;67.13
2188;BME280;1100;52.014;8.540;2023-05-07T10:26:11;100472.16;;;17.47;66.86
2188;BME280;1100;52.014;8.540;2023-05-07T10:28:40;100481.38;;;17.47;66.30
2188;BME280;1100;52.014;8.540;2023-05-07T10:31:18;100479.09;;;17.36;65.97
2188;BME280;1100;52.014;8.540;2023-05-07T10:33:50;100477.94;;;17.18;65.06
2188;BME280;1100;52.014;8.540;2023-05-07T10:36:16;100475.91;;;17.19;65.67
2188;BME280;1100;52.014;8.540;2023-05-07T10:38:42;100484.00;;;17.26;66.03
2188;BME280;1100;52.014;8.540;2023-05-07T10:41:08;100485.78;;;17.39;65.78
2188;BME280;1100;52.014;8.540;2023-05-07T10:43:39;100489.75;;;17.56;65.30
2188;BME280;1100;52.014;8.540;2023-05-07T10:46:18;100484.88;;;17.81;65.97
2188;BME280;1100;52.014;8.540;2023-05-07T10:51:36;100485.75;;;17.88;65.62
2188;BME280;1100;52.014;8.540;2023-05-07T10:56:37;100493.00;;;17.79;65.41
2188;BME280;1100;52.014;8.540;2023-05-07T11:02:02;100484.13;;;17.96;64.82
2188;BME280;1100;52.014;8.540;2023-05-07T11:04:29;100486.25;;;18.01;64.45
2188;BME280;1100;52.014;8.540;2023-05-07T11:17:29;100476.44;;;18.21;62.96
2188;BME280;1100;52.014;8.540;2023-05-07T11:19:57;100483.31;;;18.20;63.67
2188;BME280;1100;52.014;8.540;2023-05-07T11:25:00;100484.88;;;18.21;63.71
2188;BME280;1100;52.014;8.540;2023-05-07T11:27:26;100486.03;;;18.14;63.50
2188;BME280;1100;52.014;8.540;2023-05-07T11:29:52;100481.66;;;18.13;63.68
2188;BME280;1100;52.014;8.540;2023-05-07T11:32:24;100476.91;;;18.20;63.67
2188;BME280;1100;52.014;8.540;2023-05-07T11:34:54;100484.19;;;18.26;63.56
2188;BME280;1100;52.014;8.540;2023-05-07T11:37:20;100488.66;;;18.18;63.43
2188;BME280;1100;52.014;8.540;2023-05-07T11:39:47;100477.09;;;18.16;63.67
2188;BME280;1100;52.014;8.540;2023-05-07T11:42:31;100468.34;;;18.14;63.72
2188;BME280;1100;52.014;8.540;2023-05-07T11:44:57;100471.13;;;17.99;63.41
2188;BME280;1100;52.014;8.540;2023-05-07T11:47:23;100478.94;;;17.79;64.01
2188;BME280;1100;52.014;8.540;2023-05-07T11:49:50;100478.94;;;17.79;63.79
2188;BME280;1100;52.014;8.540;2023-05-07T11:52:17;100477.22;;;17.82;63.70
2188;BME280;1100;52.014;8.540;2023-05-07T11:54:51;100468.72;;;17.91;63.51
2188;BME280;1100;52.014;8.540;2023-05-07T11:57:18;100474.66;;;18.09;63.81
2188;BME280;1100;52.014;8.540;2023-05-07T11:59:43;100479.66;;;18.04;63.33
2188;BME280;1100;52.014;8.540;2023-05-07T12:02:15;100474.13;;;17.95;63.59
2188;BME280;1100;52.014;8.540;2023-05-07T12:04:40;100473.84;;;17.93;63.10
2188;BME280;1100;52.014;8.540;2023-05-07T12:07:14;100465.09;;;17.91;63.95
2188;BME280;1100;52.014;8.540;2023-05-07T12:09:43;100478.69;;;17.92;64.30
2188;BME280;1100;52.014;8.540;2023-05-07T12:12:09;100459.56;;;17.97;64.15
2188;BME280;1100;52.014;8.540;2023-05-07T12:14:42;100477.47;;;18.09;64.30
2188;BME280;1100;52.014;8.540;2023-05-07T12:17:08;100477.09;;;18.16;63.45
2188;BME280;1100;52.014;8.540;2023-05-07T12:19:35;100476.78;;;18.14;63.08
2188;BME280;1100;52.014;8.540;2023-05-07T12:22:02;100476.38;;;18.06;63.00
2188;BME280;1100;52.014;8.540;2023-05-07T12:24:28;100477.81;;;18.01;63.27
2188;BME280;1100;52.014;8.540;2023-05-07T12:26:54;100480.72;;;17.92;62.88
2188;BME280;1100;52.014;8.540;2023-05-07T12:29:23;100486.63;;;17.79;63.32
2188;BME280;1100;52.014;8.540;2023-05-07T12:31:50;100475.66;;;17.81;63.34
2188;BME280;1100;52.014;8.540;2023-05-07T12:34:15;100482.94;;;17.88;63.67
2188;BME280;1100;52.014;8.540;2023-05-07T12:36:41;100480.75;;;18.07;63.88
2188;BME280;1100;52.014;8.540;2023-05-07T12:39:07;100484.88;;;18.21;63.95
2188;BME280;1100;52.014;8.540;2023-05-07T12:41:52;100486.72;;;18.24;63.85
2188;BME280;1100;52.014;8.540;2023-05-07T12:44:18;100492.72;;;18.17;63.76
2188;BME280;1100;52.014;8.540;2023-05-07T12:46:43;100490.25;;;18.10;63.39
2188;BME280;1100;52.014;8.540;2023-05-07T12:49:08;100495.06;;;17.94;63.90
2188;BME280;1100;52.014;8.540;2023-05-07T12:51:35;100495.88;;;17.95;64.05
2188;BME280;1100;52.014;8.540;2023-05-07T12:54:00;100493.44;;;18.02;64.15
2188;BME280;1100;52.014;8.540;2023-05-07T12:56:26;100500.88;;;18.15;64.37
2188;BME280;1100;52.014;8.540;2023-05-07T12:58:51;100505.44;;;18.27;64.32
2188;BME280;1100;52.014;8.540;2023-05-07T13:01:16;100503.47;;;18.18;63.59
2188;BME280;1100;52.014;8.540;2023-05-07T13:03:48;100492.91;;;18.13;63.65
2188;BME280;1100;52.014;8.540;2023-05-07T13:06:15;100499.97;;;18.09;63.28
2188;BME280;1100;52.014;8.540;2023-05-07T13:08:41;100499.66;;;18.06;63.02
2188;BME280;1100;52.014;8.540;2023-05-07T13:11:10;100495.78;;;18.04;63.58
2188;BME280;1100;52.014;8.540;2023-05-07T13:13:39;100486.56;;;18.03;64.09
2188;BME280;1100;52.014;8.540;2023-05-07T13:16:07;100499.34;;;18.04;63.09
2188;BME280;1100;52.014;8.540;2023-05-07T13:18:33;100499.50;;;17.86;63.23
2188;BME280;1100;52.014;8.540;2023-05-07T13:20:59;100500.53;;;17.73;63.26
2188;BME280;1100;52.014;8.540;2023-05-07T13:23:25;100505.09;;;17.71;63.45
2188;BME280;1100;52.014;8.540;2023-05-07T13:25:51;100504.50;;;17.66;63.75
2188;BME280;1100;52.014;8.540;2023-05-07T13:28:19;100510.13;;;17.66;63.46
2188;BME280;1100;52.014;8.540;2023-05-07T13:30:45;100505.69;;;17.50;63.03